createdAt,value
2022-09-30T00:00:37.007Z,6.00
2022-09-30T00:03:04.014Z,6.00
2022-09-30T00:05:30.908Z,6.10
2022-09-30T00:07:57.788Z,6.00
2022-09-30T00:10:24.803Z,6.00
2022-09-30T00:12:52.500Z,6.00
2022-09-30T00:15:20.199Z,5.90
2022-09-30T00:17:47.082Z,5.90
2022-09-30T00:20:14.999Z,5.90
2022-09-30T00:22:41.950Z,5.90
2022-09-30T00:25:08.880Z,5.80
2022-09-30T00:27:35.788Z,5.80
2022-09-30T00:30:02.680Z,5.80
2022-09-30T00:32:29.571Z,5.80
2022-09-30T00:34:56.475Z,5.70
2022-09-30T00:37:23.293Z,5.70
2022-09-30T00:39:50.244Z,5.60
2022-09-30T00:42:19.632Z,5.60
2022-09-30T00:44:46.544Z,5.80
2022-09-30T00:47:19.471Z,5.80
2022-09-30T00:49:46.314Z,5.80
2022-09-30T00:52:13.186Z,5.80
2022-09-30T00:54:40.146Z,5.70
2022-09-30T00:57:08.190Z,5.60
2022-09-30T00:59:38.324Z,5.50
2022-09-30T01:02:05.931Z,5.60
2022-09-30T01:04:34.781Z,5.60
2022-09-30T01:07:05.857Z,5.50
2022-09-30T01:09:34.487Z,5.50
2022-09-30T01:12:04.704Z,5.50
2022-09-30T01:14:31.633Z,5.50
2022-09-30T01:17:10.840Z,5.50
2022-09-30T01:20:03.293Z,5.50
2022-09-30T01:22:33.024Z,5.60
2022-09-30T01:25:04.373Z,5.50
2022-09-30T01:27:31.280Z,5.40
2022-09-30T01:30:05.386Z,5.40
2022-09-30T01:32:51.164Z,5.30
2022-09-30T01:35:36.842Z,5.40
2022-09-30T01:38:13.736Z,5.30
2022-09-30T01:40:43.712Z,5.30
2022-09-30T01:43:16.495Z,5.30
2022-09-30T01:45:43.445Z,5.40
2022-09-30T01:48:21.682Z,5.40
2022-09-30T01:50:48.564Z,5.40
2022-09-30T01:53:15.455Z,5.40
2022-09-30T01:56:02.490Z,5.30
2022-09-30T01:58:29.335Z,5.30
2022-09-30T02:01:15.211Z,5.20
2022-09-30T02:03:48.239Z,5.10
2022-09-30T02:06:26.782Z,5.10
2022-09-30T02:08:57.810Z,5.10
2022-09-30T02:11:28.830Z,5.10
2022-09-30T02:14:21.715Z,5.10
2022-09-30T02:16:55.011Z,5.00
2022-09-30T02:19:28.343Z,5.00
2022-09-30T02:22:01.031Z,5.00
2022-09-30T02:24:30.690Z,4.90
2022-09-30T02:26:58.453Z,4.80
2022-09-30T02:29:28.472Z,4.80
2022-09-30T02:31:57.281Z,4.80
2022-09-30T02:34:27.411Z,4.80
2022-09-30T02:37:08.372Z,4.80
2022-09-30T02:39:42.280Z,4.80
2022-09-30T02:42:14.486Z,4.70
2022-09-30T02:44:42.202Z,4.70
2022-09-30T02:47:09.066Z,4.80
2022-09-30T02:49:35.858Z,4.70
2022-09-30T02:52:05.508Z,4.80
2022-09-30T02:54:55.379Z,4.90
2022-09-30T02:57:34.352Z,4.90
2022-09-30T03:00:03.378Z,4.90
2022-09-30T03:02:30.726Z,4.80
2022-09-30T03:04:57.683Z,4.80
2022-09-30T03:07:24.803Z,4.80
2022-09-30T03:09:55.918Z,4.70
2022-09-30T03:12:31.093Z,4.80
2022-09-30T03:15:06.722Z,4.80
2022-09-30T03:17:51.984Z,4.80
2022-09-30T03:20:37.482Z,4.80
2022-09-30T03:23:10.267Z,4.80
2022-09-30T03:25:55.430Z,4.80
2022-09-30T03:28:31.255Z,4.60
2022-09-30T03:31:00.929Z,4.70
2022-09-30T03:33:51.152Z,4.70
2022-09-30T03:36:27.273Z,4.60
2022-09-30T03:39:06.102Z,4.60
2022-09-30T03:41:48.720Z,4.50
2022-09-30T03:44:22.477Z,4.50
2022-09-30T03:46:57.960Z,4.60
2022-09-30T03:49:27.150Z,4.60
2022-09-30T03:51:58.501Z,4.60
2022-09-30T03:54:25.843Z,4.50
2022-09-30T03:56:54.410Z,4.60
2022-09-30T03:59:28.710Z,4.60
2022-09-30T04:01:57.148Z,4.50
2022-09-30T04:04:24.055Z,4.50
2022-09-30T04:06:51.151Z,4.40
2022-09-30T04:09:18.130Z,4.40
2022-09-30T04:11:45.118Z,4.40
2022-09-30T04:14:12.048Z,4.40
2022-09-30T04:16:38.924Z,4.40
2022-09-30T04:19:06.045Z,4.40
2022-09-30T04:21:32.897Z,4.50
2022-09-30T04:23:59.744Z,4.50
2022-09-30T04:26:26.683Z,4.50
2022-09-30T04:28:53.570Z,4.50
2022-09-30T04:31:21.523Z,4.50
2022-09-30T04:33:48.495Z,4.50
2022-09-30T04:36:15.481Z,4.50
2022-09-30T04:38:42.572Z,4.50
2022-09-30T04:41:14.157Z,4.50
2022-09-30T04:43:42.447Z,4.40
2022-09-30T04:46:09.331Z,4.50
2022-09-30T04:48:36.233Z,4.50
2022-09-30T04:51:03.073Z,4.20
2022-09-30T04:53:30.500Z,4.00
2022-09-30T04:56:01.200Z,3.90
2022-09-30T04:58:32.245Z,3.90
2022-09-30T05:01:02.510Z,3.90
2022-09-30T05:03:29.557Z,3.90
2022-09-30T05:05:56.477Z,3.90
2022-09-30T05:08:23.597Z,3.90
2022-09-30T05:10:57.428Z,3.90
2022-09-30T05:13:31.103Z,4.00
2022-09-30T05:15:58.147Z,3.90
2022-09-30T05:18:27.656Z,4.00
2022-09-30T05:20:55.434Z,4.00
2022-09-30T05:23:22.278Z,4.10
2022-09-30T05:25:52.479Z,4.10
2022-09-30T05:28:19.834Z,4.20
2022-09-30T05:30:46.777Z,4.20
2022-09-30T05:33:14.183Z,4.20
2022-09-30T05:35:41.939Z,4.10
2022-09-30T05:38:10.038Z,4.10
2022-09-30T05:40:40.403Z,4.10
2022-09-30T05:43:07.622Z,4.10
2022-09-30T05:45:34.767Z,4.10
2022-09-30T05:48:02.108Z,4.20
2022-09-30T05:50:29.099Z,4.50
2022-09-30T05:52:57.642Z,4.70
2022-09-30T05:55:24.832Z,4.90
2022-09-30T05:57:52.544Z,5.00
2022-09-30T06:00:20.001Z,5.20
2022-09-30T06:02:50.800Z,5.40
2022-09-30T06:05:17.930Z,5.60
2022-09-30T06:07:44.778Z,5.80
2022-09-30T06:10:12.529Z,6.10
2022-09-30T06:12:39.872Z,6.40
2022-09-30T06:15:07.038Z,6.60
2022-09-30T06:17:34.783Z,7.00
2022-09-30T06:20:02.290Z,7.20
2022-09-30T06:22:29.126Z,7.50
2022-09-30T06:24:56.045Z,7.90
2022-09-30T06:27:22.940Z,8.30
2022-09-30T06:29:49.827Z,8.70
2022-09-30T06:32:17.433Z,9.10
2022-09-30T06:34:44.935Z,9.40
2022-09-30T06:37:16.167Z,9.60
2022-09-30T06:39:43.149Z,9.10
2022-09-30T06:42:11.621Z,8.70
2022-09-30T06:44:48.737Z,8.40
2022-09-30T06:47:25.120Z,8.10
2022-09-30T06:49:54.615Z,7.80
2022-09-30T06:52:21.998Z,7.80
2022-09-30T06:54:52.631Z,7.60
2022-09-30T06:57:22.666Z,7.50
2022-09-30T06:59:50.445Z,7.30
2022-09-30T07:02:17.405Z,7.20
2022-09-30T07:04:44.409Z,7.30
2022-09-30T07:07:11.326Z,7.30
2022-09-30T07:09:38.746Z,7.30
2022-09-30T07:12:07.544Z,7.40
2022-09-30T07:14:37.153Z,7.60
2022-09-30T07:17:05.856Z,7.70
2022-09-30T07:19:34.332Z,7.80
2022-09-30T07:22:21.878Z,7.70
2022-09-30T07:24:53.101Z,7.50
2022-09-30T07:27:21.241Z,7.40
2022-09-30T07:30:10.272Z,7.50
2022-09-30T07:32:36.484Z,7.60
2022-09-30T07:35:03.618Z,7.60
2022-09-30T07:37:33.681Z,7.60
2022-09-30T07:40:00.881Z,7.70
2022-09-30T07:42:27.779Z,7.80
2022-09-30T07:44:54.606Z,7.70
2022-09-30T07:47:21.509Z,7.80
2022-09-30T07:49:48.377Z,7.80
2022-09-30T07:52:15.392Z,7.80
2022-09-30T07:54:46.657Z,7.90
2022-09-30T07:57:16.625Z,8.00
2022-09-30T07:59:44.048Z,8.00
2022-09-30T08:02:19.877Z,8.10
2022-09-30T08:04:47.006Z,8.20
2022-09-30T08:07:15.146Z,8.30
2022-09-30T08:09:42.166Z,8.50
2022-09-30T08:12:09.349Z,8.50
2022-09-30T08:14:36.320Z,8.60
2022-09-30T08:17:03.226Z,8.50
2022-09-30T08:19:30.817Z,8.60
2022-09-30T08:21:58.233Z,8.70
2022-09-30T08:24:25.671Z,8.60
2022-09-30T08:26:53.284Z,8.60
2022-09-30T08:29:35.672Z,8.70
2022-09-30T08:32:07.305Z,8.80
2022-09-30T08:34:35.827Z,8.70
2022-09-30T08:37:07.839Z,8.70
2022-09-30T08:39:36.878Z,8.80
2022-09-30T08:42:32.476Z,8.90
2022-09-30T08:45:06.816Z,9.00
2022-09-30T08:47:52.800Z,9.10
2022-09-30T08:50:19.654Z,9.10
2022-09-30T08:52:49.870Z,9.20
2022-09-30T08:55:22.239Z,9.30
2022-09-30T08:57:49.374Z,9.40
2022-09-30T09:00:18.003Z,9.60
2022-09-30T09:02:49.246Z,9.60
2022-09-30T09:05:34.454Z,9.60
2022-09-30T09:08:01.908Z,9.60
2022-09-30T09:10:28.915Z,9.70
2022-09-30T09:12:55.839Z,9.80
2022-09-30T09:15:28.848Z,10.00
2022-09-30T09:18:18.730Z,10.00
2022-09-30T09:20:55.903Z,10.10
2022-09-30T09:23:22.831Z,10.10
2022-09-30T09:25:53.213Z,10.20
2022-09-30T09:28:20.170Z,10.30
2022-09-30T09:30:51.618Z,10.50
2022-09-30T09:33:20.113Z,10.60
2022-09-30T09:35:58.396Z,10.70
2022-09-30T09:38:42.958Z,10.70
2022-09-30T09:41:12.869Z,10.80
2022-09-30T09:43:43.993Z,10.90
2022-09-30T09:46:30.208Z,11.00
2022-09-30T09:49:20.925Z,11.00
2022-09-30T09:51:58.735Z,11.20
2022-09-30T09:54:28.305Z,11.10
2022-09-30T09:56:55.234Z,11.20
2022-09-30T09:59:22.307Z,11.20
2022-09-30T10:01:53.976Z,11.50
2022-09-30T10:04:24.083Z,11.60
2022-09-30T10:06:53.033Z,11.80
2022-09-30T10:09:24.542Z,11.80
2022-09-30T10:11:52.581Z,11.80
2022-09-30T10:14:21.952Z,11.90
2022-09-30T10:16:49.028Z,11.80
2022-09-30T10:19:21.215Z,11.80
2022-09-30T10:21:48.309Z,12.00
2022-09-30T10:24:19.839Z,12.10
2022-09-30T10:26:49.090Z,12.00
2022-09-30T10:29:43.055Z,12.20
2022-09-30T10:32:10.339Z,12.40
2022-09-30T10:34:39.182Z,12.40
2022-09-30T10:37:11.186Z,12.40
2022-09-30T10:39:40.312Z,12.40
2022-09-30T10:42:13.223Z,12.40
2022-09-30T10:44:47.907Z,12.40
2022-09-30T10:47:17.016Z,12.60
2022-09-30T10:49:49.551Z,12.80
2022-09-30T10:52:19.283Z,12.90
2022-09-30T10:54:50.966Z,13.10
2022-09-30T10:57:23.680Z,13.20
2022-09-30T10:59:52.576Z,13.30
2022-09-30T11:02:25.710Z,13.40
2022-09-30T11:05:13.584Z,13.50
2022-09-30T11:07:45.695Z,13.30
2022-09-30T11:10:31.338Z,13.40
2022-09-30T11:13:16.843Z,13.60
2022-09-30T11:16:00.780Z,13.90
2022-09-30T11:18:46.645Z,13.90
2022-09-30T11:21:36.596Z,13.90
2022-09-30T11:24:18.232Z,14.20
2022-09-30T11:26:53.893Z,14.20
2022-09-30T11:29:27.459Z,14.30
2022-09-30T11:31:57.031Z,14.60
2022-09-30T11:34:26.855Z,14.90
2022-09-30T11:37:14.230Z,15.30
2022-09-30T11:39:51.539Z,15.50
2022-09-30T11:42:21.820Z,15.90
2022-09-30T11:44:54.563Z,15.80
2022-09-30T11:47:29.264Z,15.70
2022-09-30T11:50:05.258Z,16.00
2022-09-30T11:52:38.016Z,16.50
2022-09-30T11:55:23.714Z,16.80
2022-09-30T11:58:00.698Z,17.10
2022-09-30T12:00:30.409Z,16.80
2022-09-30T12:03:03.912Z,17.00
2022-09-30T12:05:35.965Z,17.00
2022-09-30T12:08:06.876Z,17.10
2022-09-30T12:10:36.200Z,17.20
2022-09-30T12:13:04.983Z,16.80
2022-09-30T12:15:32.971Z,16.10
2022-09-30T12:18:05.165Z,16.00
2022-09-30T12:20:41.912Z,16.20
2022-09-30T12:23:14.401Z,16.10
2022-09-30T12:25:44.143Z,16.50
2022-09-30T12:28:49.620Z,17.00
2022-09-30T12:31:19.590Z,17.20
2022-09-30T12:33:55.313Z,17.10
2022-09-30T12:36:25.074Z,17.20
2022-09-30T12:38:57.740Z,17.10
2022-09-30T12:41:27.295Z,16.50
2022-09-30T12:44:12.699Z,17.10
2022-09-30T12:46:45.477Z,17.70
2022-09-30T12:49:15.103Z,18.20
2022-09-30T12:51:42.981Z,18.40
2022-09-30T12:54:12.456Z,18.50
2022-09-30T12:56:42.142Z,18.50
2022-09-30T12:59:10.165Z,18.50
2022-09-30T13:01:38.364Z,18.70
2022-09-30T13:04:05.223Z,18.80
2022-09-30T13:06:47.204Z,18.80
2022-09-30T13:09:17.210Z,19.00
2022-09-30T13:11:48.337Z,19.20
2022-09-30T13:14:30.264Z,19.30
2022-09-30T13:17:05.487Z,19.30
2022-09-30T13:19:41.197Z,19.00
2022-09-30T13:22:20.468Z,19.20
2022-09-30T13:25:05.326Z,19.20
2022-09-30T13:27:35.244Z,19.20
2022-09-30T13:30:03.552Z,19.00
2022-09-30T13:32:31.813Z,19.10
2022-09-30T13:34:58.878Z,18.50
2022-09-30T13:37:45.937Z,18.20
2022-09-30T13:40:16.295Z,17.80
2022-09-30T13:42:47.292Z,18.40
2022-09-30T13:45:37.063Z,18.90
2022-09-30T13:48:11.361Z,19.20
2022-09-30T13:50:42.617Z,18.50
2022-09-30T13:53:13.422Z,18.50
2022-09-30T13:55:42.734Z,18.90
2022-09-30T13:58:22.822Z,18.50
2022-09-30T14:01:03.470Z,19.00
2022-09-30T14:03:46.651Z,19.50
2022-09-30T14:06:23.338Z,19.90
2022-09-30T14:09:09.007Z,19.60
2022-09-30T14:11:51.425Z,19.10
2022-09-30T14:14:33.965Z,18.30
2022-09-30T14:17:04.709Z,18.30
2022-09-30T14:19:51.879Z,18.40
2022-09-30T14:22:19.555Z,18.80
2022-09-30T14:24:50.411Z,19.20
2022-09-30T14:27:20.204Z,19.40
2022-09-30T14:29:47.248Z,19.50
2022-09-30T14:32:18.906Z,19.50
2022-09-30T14:34:46.807Z,19.30
2022-09-30T14:37:41.116Z,19.00
2022-09-30T14:40:12.508Z,18.70
2022-09-30T14:42:41.357Z,18.80
2022-09-30T14:45:08.732Z,18.90
2022-09-30T14:47:38.586Z,18.90
2022-09-30T14:50:14.581Z,18.80
2022-09-30T14:52:46.177Z,18.20
2022-09-30T14:55:25.672Z,17.50
2022-09-30T14:57:58.157Z,17.00
2022-09-30T15:00:29.853Z,16.90
2022-09-30T15:02:56.979Z,16.90
2022-09-30T15:05:24.409Z,17.50
2022-09-30T15:07:51.282Z,18.10
2022-09-30T15:10:23.175Z,18.30
2022-09-30T15:12:50.932Z,18.40
2022-09-30T15:15:25.925Z,18.60
2022-09-30T15:17:55.594Z,18.30
2022-09-30T15:20:26.136Z,18.20
2022-09-30T15:22:53.401Z,18.10
2022-09-30T15:25:22.033Z,18.10
2022-09-30T15:27:50.417Z,18.00
2022-09-30T15:30:20.244Z,17.70
2022-09-30T15:32:50.356Z,17.10
2022-09-30T15:35:21.832Z,16.60
2022-09-30T15:37:49.092Z,16.40
2022-09-30T15:40:35.627Z,16.30
2022-09-30T15:43:06.547Z,16.40
2022-09-30T15:45:36.046Z,16.30
2022-09-30T15:48:22.739Z,16.00
2022-09-30T15:50:53.001Z,15.80
2022-09-30T15:53:29.589Z,15.60
2022-09-30T15:55:57.131Z,15.40
2022-09-30T15:58:26.827Z,15.50
2022-09-30T16:01:09.362Z,15.70
2022-09-30T16:03:36.617Z,15.90
2022-09-30T16:06:08.311Z,15.90
2022-09-30T16:08:55.428Z,15.90
2022-09-30T16:11:25.477Z,15.80
2022-09-30T16:13:52.573Z,15.80
2022-09-30T16:16:21.415Z,15.90
2022-09-30T16:18:49.024Z,15.90
2022-09-30T16:21:28.250Z,15.80
2022-09-30T16:23:55.203Z,15.70
2022-09-30T16:26:24.642Z,15.60
2022-09-30T16:28:53.073Z,15.40
2022-09-30T16:31:20.421Z,15.30
2022-09-30T16:33:47.351Z,15.10
2022-09-30T16:36:14.939Z,15.00
2022-09-30T16:38:42.570Z,15.10
2022-09-30T16:41:13.120Z,15.10
2022-09-30T16:43:40.471Z,15.20
2022-09-30T16:46:09.206Z,15.20
2022-09-30T16:48:36.342Z,15.20
2022-09-30T16:51:17.037Z,15.20
2022-09-30T16:53:44.351Z,15.00
2022-09-30T16:56:19.594Z,14.80
2022-09-30T16:58:47.107Z,14.60
2022-09-30T17:01:21.382Z,14.40
2022-09-30T17:03:48.948Z,14.20
2022-09-30T17:06:17.520Z,14.00
2022-09-30T17:08:45.518Z,13.80
2022-09-30T17:11:12.394Z,13.70
2022-09-30T17:13:39.349Z,13.50
2022-09-30T17:16:06.424Z,13.40
2022-09-30T17:18:33.286Z,13.40
2022-09-30T17:21:01.449Z,13.30
2022-09-30T17:23:28.363Z,13.20
2022-09-30T17:25:55.268Z,13.10
2022-09-30T17:28:22.399Z,13.10
2022-09-30T17:30:50.527Z,13.10
2022-09-30T17:33:20.099Z,13.00
2022-09-30T17:36:00.498Z,12.90
2022-09-30T17:38:27.367Z,12.80
2022-09-30T17:41:13.175Z,12.70
2022-09-30T17:43:40.068Z,12.70
2022-09-30T17:46:07.072Z,12.60
2022-09-30T17:48:34.100Z,12.60
2022-09-30T17:51:01.009Z,12.50
2022-09-30T17:53:29.513Z,12.50
2022-09-30T17:56:04.681Z,12.50
2022-09-30T17:58:31.541Z,12.50
2022-09-30T18:01:00.555Z,12.40
2022-09-30T18:03:28.347Z,12.30
2022-09-30T18:05:58.939Z,12.30
2022-09-30T18:08:26.602Z,12.30
2022-09-30T18:10:53.577Z,12.30
2022-09-30T18:13:20.755Z,12.20
2022-09-30T18:15:47.797Z,12.20
2022-09-30T18:18:14.702Z,12.10
2022-09-30T18:20:45.126Z,12.10
2022-09-30T18:23:12.360Z,12.00
2022-09-30T18:25:41.393Z,11.90
2022-09-30T18:28:08.965Z,11.90
2022-09-30T18:30:36.555Z,11.90
2022-09-30T18:33:07.258Z,11.80
2022-09-30T18:35:35.815Z,11.70
2022-09-30T18:38:03.298Z,11.60
2022-09-30T18:40:30.628Z,11.60
2022-09-30T18:42:59.501Z,11.50
2022-09-30T18:45:27.142Z,11.50
2022-09-30T18:47:55.775Z,11.50
2022-09-30T18:50:23.716Z,11.40
2022-09-30T18:52:51.935Z,11.40
2022-09-30T18:55:19.583Z,11.40
2022-09-30T18:57:50.494Z,11.30
2022-09-30T19:00:18.238Z,11.40
2022-09-30T19:02:45.390Z,11.30
2022-09-30T19:05:13.194Z,11.30
2022-09-30T19:07:43.351Z,11.30
2022-09-30T19:10:13.243Z,11.30
2022-09-30T19:12:40.905Z,11.30
2022-09-30T19:15:09.124Z,11.30
2022-09-30T19:17:38.012Z,11.20
2022-09-30T19:20:05.994Z,11.20
2022-09-30T19:22:37.266Z,11.10
2022-09-30T19:25:05.133Z,11.10
2022-09-30T19:27:36.411Z,11.10
2022-09-30T19:30:04.157Z,11.00
2022-09-30T19:32:34.768Z,11.00
2022-09-30T19:35:06.417Z,10.90
2022-09-30T19:37:35.268Z,10.90
2022-09-30T19:40:17.827Z,10.90
2022-09-30T19:42:48.613Z,10.80
2022-09-30T19:45:24.347Z,10.80
2022-09-30T19:47:52.690Z,10.80
2022-09-30T19:50:24.288Z,10.80
2022-09-30T19:52:57.219Z,10.70
2022-09-30T19:55:25.406Z,10.70
2022-09-30T19:57:52.514Z,10.60
2022-09-30T20:00:22.286Z,10.50
2022-09-30T20:02:50.438Z,10.50
2022-09-30T20:05:18.788Z,10.50
2022-09-30T20:07:45.938Z,10.40
2022-09-30T20:10:13.031Z,10.50
2022-09-30T20:12:40.094Z,10.50
2022-09-30T20:15:25.906Z,10.50
2022-09-30T20:17:54.639Z,10.50
2022-09-30T20:20:37.434Z,10.50
2022-09-30T20:23:04.956Z,10.40
2022-09-30T20:25:33.850Z,10.40
2022-09-30T20:28:00.962Z,10.40
2022-09-30T20:30:30.096Z,10.40
2022-09-30T20:32:57.143Z,10.40
2022-09-30T20:35:24.487Z,10.40
2022-09-30T20:37:51.989Z,10.40
2022-09-30T20:40:20.463Z,10.40
2022-09-30T20:42:47.526Z,10.30
2022-09-30T20:45:14.560Z,10.30
2022-09-30T20:47:43.883Z,10.30
2022-09-30T20:50:12.951Z,10.30
2022-09-30T20:52:40.158Z,10.30
2022-09-30T20:55:08.232Z,10.30
2022-09-30T20:57:35.434Z,10.30
2022-09-30T21:00:02.478Z,10.30
2022-09-30T21:02:29.544Z,10.30
2022-09-30T21:04:59.831Z,10.20
2022-09-30T21:07:27.069Z,10.20
2022-09-30T21:09:54.248Z,10.20
2022-09-30T21:12:21.765Z,10.20
2022-09-30T21:14:48.945Z,10.10
2022-09-30T21:17:15.915Z,10.10
2022-09-30T21:19:43.571Z,10.10
2022-09-30T21:22:11.983Z,10.10
2022-09-30T21:24:39.033Z,10.10
2022-09-30T21:27:08.695Z,10.00
2022-09-30T21:29:35.757Z,10.00
2022-09-30T21:32:02.896Z,10.10
2022-09-30T21:34:30.547Z,10.10
2022-09-30T21:36:57.653Z,10.10
2022-09-30T21:39:24.720Z,10.10
2022-09-30T21:41:51.720Z,10.10
2022-09-30T21:44:18.773Z,10.20
2022-09-30T21:46:48.750Z,10.20
2022-09-30T21:49:15.978Z,10.20
2022-09-30T21:51:43.334Z,10.10
2022-09-30T21:54:12.020Z,10.10
2022-09-30T21:56:39.404Z,10.10
2022-09-30T21:59:07.204Z,10.10
2022-09-30T22:01:35.146Z,10.20
2022-09-30T22:04:02.666Z,10.20
2022-09-30T22:06:30.583Z,10.20
2022-09-30T22:09:00.490Z,10.30
2022-09-30T22:11:28.222Z,10.30
2022-09-30T22:13:56.760Z,10.30
2022-09-30T22:16:24.627Z,10.30
2022-09-30T22:18:53.361Z,10.30
2022-09-30T22:21:20.891Z,10.40
2022-09-30T22:23:48.426Z,10.40
2022-09-30T22:26:19.693Z,10.40
2022-09-30T22:28:47.445Z,10.30
2022-09-30T22:31:16.566Z,10.30
2022-09-30T22:34:02.285Z,10.30
2022-09-30T22:36:47.724Z,10.20
2022-09-30T22:39:14.804Z,10.20
2022-09-30T22:41:42.852Z,10.20
2022-09-30T22:44:09.915Z,10.20
2022-09-30T22:46:37.412Z,10.10
2022-09-30T22:49:04.839Z,10.10
2022-09-30T22:51:33.125Z,10.10
2022-09-30T22:54:01.339Z,10.10
2022-09-30T22:56:28.446Z,10.10
2022-09-30T22:58:55.592Z,10.10
2022-09-30T23:01:22.643Z,10.10
2022-09-30T23:03:56.028Z,10.10
2022-09-30T23:06:24.759Z,10.10
2022-09-30T23:08:52.775Z,10.10
2022-09-30T23:11:19.772Z,10.10
2022-09-30T23:13:46.951Z,10.10
2022-09-30T23:16:14.532Z,10.10
2022-09-30T23:18:41.714Z,10.10
2022-09-30T23:21:12.172Z,10.10
2022-09-30T23:23:39.499Z,10.10
2022-09-30T23:26:14.037Z,10.10
2022-09-30T23:28:41.962Z,10.10
2022-09-30T23:31:11.001Z,10.10
2022-09-30T23:33:39.306Z,10.20
2022-09-30T23:36:07.219Z,10.10
2022-09-30T23:38:34.277Z,10.10
2022-09-30T23:41:01.390Z,10.10
2022-09-30T23:43:30.594Z,10.10
2022-09-30T23:45:58.535Z,10.10
2022-09-30T23:48:25.727Z,10.00
2022-09-30T23:50:53.358Z,10.00
2022-09-30T23:53:21.393Z,10.00
2022-09-30T23:55:55.716Z,9.90
2022-09-30T23:58:23.443Z,9.90
